CXA007 LDSP-LQSA
Flight info
| Callsign | CXA007 |
|---|---|
| Flight time | 1h 18m |
| Altitude | 2500 |
| Route | SPL DCT MSR |
| Aircraft | EC35/L-SFG/G |
Departure
| Time | 2026-04-27 00:11 |
|---|---|
| Airport | Split Saint Jerome Airport (LDSP) |
Arrival
| Time | 2026-04-27 01:29 |
|---|---|
| Airport | Sarajevo International Airport (LQSA) |
| Time | Latitude | Longitude | Altitude | Speed | Heading |
|---|---|---|---|---|---|
| 2026-04-26 23:47 | 43.53661 | 16.29757 | 70 ft | 0 kts | 207° |
| 2026-04-27 00:05 | 43.53663 | 16.29751 | 72 ft | 5 kts | 352° |
| 2026-04-27 00:06 | 43.53707 | 16.29811 | 74 ft | 15 kts | 60° |
| 2026-04-27 00:06 | 43.53780 | 16.29957 | 88 ft | 18 kts | 57° |
| 2026-04-27 00:06 | 43.53824 | 16.30022 | 88 ft | 7 kts | 235° |
| 2026-04-27 00:06 | 43.53701 | 16.29815 | 193 ft | 47 kts | 224° |
| 2026-04-27 00:07 | 43.53329 | 16.29852 | 283 ft | 61 kts | 184° |
| 2026-04-27 00:07 | 43.52985 | 16.29173 | 328 ft | 107 kts | 247° |
| 2026-04-27 00:07 | 43.52613 | 16.28082 | 238 ft | 139 kts | 246° |
| 2026-04-27 00:07 | 43.52208 | 16.26820 | 278 ft | 144 kts | 247° |
| 2026-04-27 00:08 | 43.51792 | 16.25637 | 255 ft | 125 kts | 244° |
| 2026-04-27 00:08 | 43.51468 | 16.24946 | 250 ft | 46 kts | 238° |
| 2026-04-27 00:08 | 43.51434 | 16.24746 | 166 ft | 19 kts | 309° |
| 2026-04-27 00:08 | 43.51614 | 16.24656 | 101 ft | 29 kts | 359° |
| 2026-04-27 00:09 | 43.51691 | 16.24833 | 68 ft | 11 kts | 66° |
| 2026-04-27 00:09 | 43.51728 | 16.24955 | 70 ft | 26 kts | 66° |
| 2026-04-27 00:09 | 43.51720 | 16.25112 | 100 ft | 2 kts | 70° |
| 2026-04-27 00:09 | 43.51705 | 16.25072 | 171 ft | 9 kts | 187° |
| 2026-04-27 00:10 | 43.51677 | 16.25415 | 331 ft | 63 kts | 90° |
| 2026-04-27 00:10 | 43.51666 | 16.26224 | 484 ft | 100 kts | 91° |
| 2026-04-27 00:10 | 43.51613 | 16.27307 | 531 ft | 128 kts | 94° |
| 2026-04-27 00:10 | 43.51552 | 16.28604 | 593 ft | 141 kts | 94° |
| 2026-04-27 00:11 | 43.51480 | 16.29927 | 887 ft | 132 kts | 95° |
| 2026-04-27 00:11 | 43.51403 | 16.31159 | 1157 ft | 129 kts | 94° |
| 2026-04-27 00:11 | 43.51336 | 16.32451 | 1191 ft | 142 kts | 93° |
| 2026-04-27 00:11 | 43.51298 | 16.33822 | 1243 ft | 146 kts | 91° |
| 2026-04-27 00:12 | 43.51273 | 16.35286 | 1193 ft | 154 kts | 91° |
| 2026-04-27 00:12 | 43.51230 | 16.36724 | 1189 ft | 146 kts | 92° |
| 2026-04-27 00:12 | 43.51182 | 16.38065 | 1302 ft | 134 kts | 92° |
| 2026-04-27 00:12 | 43.51138 | 16.39302 | 1498 ft | 125 kts | 92° |
| 2026-04-27 00:13 | 43.51097 | 16.40461 | 1706 ft | 118 kts | 92° |
| 2026-04-27 00:13 | 43.51057 | 16.41566 | 1922 ft | 113 kts | 93° |
| 2026-04-27 00:13 | 43.51017 | 16.42631 | 2140 ft | 109 kts | 92° |
| 2026-04-27 00:13 | 43.50983 | 16.43661 | 2359 ft | 107 kts | 93° |
| 2026-04-27 00:14 | 43.50952 | 16.44675 | 2580 ft | 105 kts | 92° |
| 2026-04-27 00:14 | 43.50917 | 16.45673 | 2800 ft | 104 kts | 92° |
| 2026-04-27 00:14 | 43.50875 | 16.46663 | 3018 ft | 103 kts | 92° |
| 2026-04-27 00:14 | 43.50832 | 16.47648 | 3235 ft | 102 kts | 92° |
| 2026-04-27 00:15 | 43.50789 | 16.48612 | 3444 ft | 102 kts | 93° |
| 2026-04-27 00:15 | 43.50747 | 16.49583 | 3656 ft | 101 kts | 92° |
| 2026-04-27 00:15 | 43.50704 | 16.50550 | 3863 ft | 102 kts | 92° |
| 2026-04-27 00:15 | 43.50663 | 16.51533 | 4061 ft | 104 kts | 92° |
| 2026-04-27 00:16 | 43.50621 | 16.52567 | 4118 ft | 116 kts | 92° |
| 2026-04-27 00:16 | 43.50574 | 16.53763 | 3946 ft | 135 kts | 92° |
| 2026-04-27 00:16 | 43.50525 | 16.55125 | 3601 ft | 148 kts | 92° |
| 2026-04-27 00:16 | 43.50482 | 16.56582 | 3154 ft | 154 kts | 91° |
| 2026-04-27 00:17 | 43.50450 | 16.58055 | 2757 ft | 150 kts | 91° |
| 2026-04-27 00:17 | 43.50427 | 16.59409 | 2612 ft | 140 kts | 90° |
| 2026-04-27 00:17 | 43.50197 | 16.60540 | 2439 ft | 125 kts | 138° |
| 2026-04-27 00:17 | 43.49412 | 16.60762 | 2139 ft | 120 kts | 212° |
| 2026-04-27 00:18 | 43.49064 | 16.60214 | 1846 ft | 115 kts | 255° |
| 2026-04-27 00:18 | 43.49423 | 16.59527 | 1361 ft | 99 kts | 33° |
| 2026-04-27 00:18 | 43.49534 | 16.60239 | 1138 ft | 61 kts | 83° |
| 2026-04-27 00:18 | 43.49639 | 16.60684 | 1232 ft | 42 kts | 62° |
| 2026-04-27 00:19 | 43.49848 | 16.60918 | 1646 ft | 35 kts | 38° |
| 2026-04-27 00:19 | 43.50039 | 16.61135 | 1999 ft | 43 kts | 37° |
| 2026-04-27 00:19 | 43.50190 | 16.61254 | 2210 ft | 13 kts | 32° |
| 2026-04-27 00:19 | 43.50329 | 16.61336 | 2376 ft | 20 kts | 28° |
| 2026-04-27 00:20 | 43.50401 | 16.61586 | 2399 ft | 39 kts | 228° |
| 2026-04-27 00:20 | 43.50312 | 16.61516 | 2455 ft | 41 kts | 261° |
| 2026-04-27 00:20 | 43.50566 | 16.61193 | 2322 ft | 83 kts | 14° |
| 2026-04-27 00:20 | 43.50458 | 16.61856 | 2372 ft | 99 kts | 180° |
| 2026-04-27 00:21 | 43.49888 | 16.61585 | 2490 ft | 84 kts | 203° |
| 2026-04-27 00:21 | 43.49490 | 16.61066 | 2215 ft | 93 kts | 249° |
| 2026-04-27 00:21 | 43.49257 | 16.60187 | 1548 ft | 50 kts | 251° |
| 2026-04-27 00:21 | 43.49199 | 16.59954 | 1182 ft | 19 kts | 254° |
| 2026-04-27 00:22 | 43.49142 | 16.59735 | 782 ft | 15 kts | 216° |
| 2026-04-27 00:22 | 43.49110 | 16.59712 | 658 ft | 5 kts | 192° |
| 2026-04-27 00:22 | 43.49092 | 16.59733 | 655 ft | 10 kts | 191° |
| 2026-04-27 00:22 | 43.49003 | 16.59896 | 839 ft | 36 kts | 98° |
| 2026-04-27 00:23 | 43.48820 | 16.60327 | 1052 ft | 70 kts | 127° |
| 2026-04-27 00:23 | 43.48400 | 16.61097 | 932 ft | 127 kts | 126° |
| 2026-04-27 00:23 | 43.47858 | 16.62099 | 1124 ft | 128 kts | 126° |
| 2026-04-27 00:23 | 43.47345 | 16.63039 | 1406 ft | 119 kts | 127° |
| 2026-04-27 00:24 | 43.46860 | 16.63922 | 1659 ft | 113 kts | 127° |
| 2026-04-27 00:24 | 43.46395 | 16.64767 | 1919 ft | 109 kts | 127° |
| 2026-04-27 00:24 | 43.45946 | 16.65583 | 2172 ft | 108 kts | 127° |
| 2026-04-27 00:24 | 43.45490 | 16.66410 | 2427 ft | 106 kts | 127° |
| 2026-04-27 00:25 | 43.45055 | 16.67199 | 2668 ft | 104 kts | 126° |
| 2026-04-27 00:25 | 43.44564 | 16.68097 | 2552 ft | 128 kts | 127° |
| 2026-04-27 00:25 | 43.44014 | 16.69112 | 2561 ft | 133 kts | 127° |
| 2026-04-27 00:25 | 43.43444 | 16.70145 | 2406 ft | 145 kts | 127° |
| 2026-04-27 00:26 | 43.42689 | 16.71075 | 1951 ft | 155 kts | 191° |
| 2026-04-27 00:26 | 43.42710 | 16.70208 | 1552 ft | 118 kts | 358° |
| 2026-04-27 00:26 | 43.43461 | 16.70518 | 1225 ft | 103 kts | 73° |
| 2026-04-27 00:26 | 43.42882 | 16.71190 | 1233 ft | 130 kts | 152° |
| 2026-04-27 00:27 | 43.42143 | 16.71785 | 1500 ft | 117 kts | 146° |
| 2026-04-27 00:27 | 43.41535 | 16.72460 | 1770 ft | 109 kts | 139° |
| 2026-04-27 00:27 | 43.40981 | 16.73133 | 2042 ft | 105 kts | 137° |
| 2026-04-27 00:27 | 43.40436 | 16.73800 | 2299 ft | 104 kts | 137° |
| 2026-04-27 00:28 | 43.39898 | 16.74452 | 2436 ft | 103 kts | 137° |
| 2026-04-27 00:28 | 43.39379 | 16.75166 | 2508 ft | 109 kts | 133° |
| 2026-04-27 00:28 | 43.38847 | 16.75950 | 2533 ft | 115 kts | 131° |
| 2026-04-27 00:28 | 43.38290 | 16.76776 | 2530 ft | 120 kts | 131° |
| 2026-04-27 00:29 | 43.37718 | 16.77628 | 2522 ft | 122 kts | 131° |
| 2026-04-27 00:29 | 43.37234 | 16.78572 | 2521 ft | 121 kts | 120° |
| 2026-04-27 00:29 | 43.36822 | 16.79569 | 2515 ft | 121 kts | 118° |
| 2026-04-27 00:29 | 43.36418 | 16.80584 | 2516 ft | 122 kts | 117° |
| 2026-04-27 00:30 | 43.36062 | 16.81628 | 2517 ft | 120 kts | 98° |
| 2026-04-27 00:30 | 43.36038 | 16.82776 | 2517 ft | 121 kts | 89° |
| 2026-04-27 00:30 | 43.36065 | 16.83933 | 2514 ft | 121 kts | 88° |
| 2026-04-27 00:30 | 43.36084 | 16.85098 | 2512 ft | 122 kts | 90° |
| 2026-04-27 00:31 | 43.36072 | 16.86269 | 2511 ft | 122 kts | 91° |
| 2026-04-27 00:31 | 43.36055 | 16.87435 | 2510 ft | 122 kts | 91° |
| 2026-04-27 00:31 | 43.35863 | 16.88548 | 2505 ft | 121 kts | 114° |
| 2026-04-27 00:31 | 43.35485 | 16.89577 | 2513 ft | 121 kts | 117° |
| 2026-04-27 00:32 | 43.35085 | 16.90601 | 2518 ft | 122 kts | 118° |
| 2026-04-27 00:32 | 43.34677 | 16.91636 | 2519 ft | 122 kts | 118° |
| 2026-04-27 00:32 | 43.34271 | 16.92660 | 2515 ft | 122 kts | 118° |
| 2026-04-27 00:32 | 43.33869 | 16.93670 | 2518 ft | 122 kts | 118° |
| 2026-04-27 00:33 | 43.33402 | 16.94634 | 2514 ft | 121 kts | 128° |
| 2026-04-27 00:33 | 43.32842 | 16.95498 | 2517 ft | 122 kts | 132° |
| 2026-04-27 00:33 | 43.32259 | 16.96347 | 2515 ft | 122 kts | 133° |
| 2026-04-27 00:33 | 43.31681 | 16.97184 | 2597 ft | 116 kts | 133° |
| 2026-04-27 00:34 | 43.31179 | 16.97990 | 2763 ft | 106 kts | 117° |
| 2026-04-27 00:34 | 43.30899 | 16.98898 | 2935 ft | 101 kts | 110° |
| 2026-04-27 00:34 | 43.30654 | 16.99791 | 3115 ft | 99 kts | 109° |
| 2026-04-27 00:34 | 43.30415 | 17.00678 | 3368 ft | 99 kts | 109° |
| 2026-04-27 00:35 | 43.30244 | 17.01576 | 3641 ft | 97 kts | 100° |
| 2026-04-27 00:35 | 43.30140 | 17.02492 | 3908 ft | 97 kts | 97° |
| 2026-04-27 00:35 | 43.30042 | 17.03402 | 4124 ft | 95 kts | 97° |
| 2026-04-27 00:35 | 43.29946 | 17.04293 | 4314 ft | 93 kts | 97° |
| 2026-04-27 00:36 | 43.29856 | 17.05180 | 4498 ft | 95 kts | 97° |
| 2026-04-27 00:36 | 43.29770 | 17.06082 | 4677 ft | 96 kts | 97° |
| 2026-04-27 00:36 | 43.29682 | 17.07001 | 4842 ft | 97 kts | 98° |
| 2026-04-27 00:36 | 43.29595 | 17.07913 | 4957 ft | 96 kts | 98° |
| 2026-04-27 00:37 | 43.29499 | 17.08813 | 5073 ft | 93 kts | 101° |
| 2026-04-27 00:37 | 43.29366 | 17.09661 | 5191 ft | 89 kts | 103° |
| 2026-04-27 00:37 | 43.29233 | 17.10474 | 5312 ft | 86 kts | 103° |
| 2026-04-27 00:37 | 43.29101 | 17.11267 | 5418 ft | 86 kts | 103° |
| 2026-04-27 00:38 | 43.28966 | 17.12087 | 5473 ft | 90 kts | 103° |
| 2026-04-27 00:38 | 43.28821 | 17.12951 | 5496 ft | 95 kts | 103° |
| 2026-04-27 00:38 | 43.28662 | 17.13851 | 5501 ft | 99 kts | 104° |
| 2026-04-27 00:38 | 43.28496 | 17.14777 | 5514 ft | 101 kts | 103° |
| 2026-04-27 00:39 | 43.28319 | 17.15725 | 5512 ft | 103 kts | 103° |
| 2026-04-27 00:39 | 43.28140 | 17.16675 | 5506 ft | 102 kts | 104° |
| 2026-04-27 00:39 | 43.27957 | 17.17610 | 5503 ft | 101 kts | 104° |
| 2026-04-27 00:39 | 43.27774 | 17.18546 | 5502 ft | 101 kts | 104° |
| 2026-04-27 00:40 | 43.27592 | 17.19472 | 5504 ft | 100 kts | 104° |
| 2026-04-27 00:40 | 43.27413 | 17.20383 | 5508 ft | 98 kts | 104° |
| 2026-04-27 00:40 | 43.27235 | 17.21283 | 5513 ft | 98 kts | 104° |
| 2026-04-27 00:40 | 43.27057 | 17.22181 | 5516 ft | 98 kts | 104° |
| 2026-04-27 00:41 | 43.26879 | 17.23081 | 5517 ft | 98 kts | 104° |
| 2026-04-27 00:41 | 43.26699 | 17.23985 | 5516 ft | 98 kts | 104° |
| 2026-04-27 00:41 | 43.26525 | 17.24906 | 5335 ft | 110 kts | 103° |
| 2026-04-27 00:41 | 43.26313 | 17.26061 | 4952 ft | 122 kts | 103° |
| 2026-04-27 00:42 | 43.26121 | 17.27107 | 4963 ft | 106 kts | 104° |
| 2026-04-27 00:42 | 43.25948 | 17.28056 | 4991 ft | 100 kts | 103° |
| 2026-04-27 00:42 | 43.25783 | 17.28980 | 4969 ft | 102 kts | 103° |
| 2026-04-27 00:42 | 43.25611 | 17.29965 | 4827 ft | 110 kts | 103° |
| 2026-04-27 00:43 | 43.25430 | 17.31006 | 4663 ft | 114 kts | 103° |
| 2026-04-27 00:43 | 43.25247 | 17.32051 | 4493 ft | 114 kts | 103° |
| 2026-04-27 00:43 | 43.25058 | 17.33106 | 4326 ft | 113 kts | 103° |
| 2026-04-27 00:43 | 43.24857 | 17.34149 | 4169 ft | 113 kts | 104° |
| 2026-04-27 00:44 | 43.24654 | 17.35192 | 4006 ft | 113 kts | 104° |
| 2026-04-27 00:44 | 43.24450 | 17.36235 | 3866 ft | 112 kts | 104° |
| 2026-04-27 00:44 | 43.24249 | 17.37267 | 3722 ft | 112 kts | 104° |
| 2026-04-27 00:44 | 43.24052 | 17.38275 | 3619 ft | 107 kts | 103° |
| 2026-04-27 00:45 | 43.23859 | 17.39296 | 3536 ft | 106 kts | 104° |
| 2026-04-27 00:45 | 43.23679 | 17.40238 | 3550 ft | 99 kts | 104° |
| 2026-04-27 00:45 | 43.23502 | 17.41128 | 3570 ft | 95 kts | 104° |
| 2026-04-27 00:45 | 43.23327 | 17.41995 | 3580 ft | 94 kts | 105° |
| 2026-04-27 00:46 | 43.23154 | 17.42856 | 3596 ft | 94 kts | 105° |
| 2026-04-27 00:46 | 43.22980 | 17.43736 | 3604 ft | 95 kts | 104° |
| 2026-04-27 00:46 | 43.22813 | 17.44611 | 3605 ft | 95 kts | 104° |
| 2026-04-27 00:46 | 43.22637 | 17.45488 | 3606 ft | 96 kts | 104° |
| 2026-04-27 00:47 | 43.22460 | 17.46350 | 3605 ft | 95 kts | 105° |
| 2026-04-27 00:47 | 43.22282 | 17.47221 | 3607 ft | 95 kts | 105° |
| 2026-04-27 00:47 | 43.22102 | 17.48105 | 3608 ft | 95 kts | 104° |
| 2026-04-27 00:47 | 43.21915 | 17.49024 | 3585 ft | 107 kts | 105° |
| 2026-04-27 00:48 | 43.21709 | 17.50050 | 3562 ft | 115 kts | 105° |
| 2026-04-27 00:48 | 43.21500 | 17.51086 | 3543 ft | 105 kts | 105° |
| 2026-04-27 00:48 | 43.21295 | 17.52041 | 3550 ft | 106 kts | 106° |
| 2026-04-27 00:48 | 43.21080 | 17.53020 | 3547 ft | 103 kts | 106° |
| 2026-04-27 00:49 | 43.20881 | 17.53926 | 3563 ft | 101 kts | 106° |
| 2026-04-27 00:49 | 43.20665 | 17.54882 | 3557 ft | 108 kts | 107° |
| 2026-04-27 00:49 | 43.20437 | 17.55884 | 3539 ft | 111 kts | 107° |
| 2026-04-27 00:49 | 43.20218 | 17.56828 | 3551 ft | 97 kts | 107° |
| 2026-04-27 00:50 | 43.20008 | 17.57720 | 3566 ft | 103 kts | 107° |
| 2026-04-27 00:50 | 43.19560 | 17.59644 | 3563 ft | 100 kts | 107° |
| 2026-04-27 00:50 | 43.19345 | 17.60527 | 3581 ft | 97 kts | 108° |
| 2026-04-27 00:51 | 43.19112 | 17.61405 | 3508 ft | 106 kts | 121° |
| 2026-04-27 00:51 | 43.18263 | 17.61942 | 2445 ft | 159 kts | 162° |
| 2026-04-27 00:51 | 43.17214 | 17.62449 | 1240 ft | 163 kts | 157° |
| 2026-04-27 00:51 | 43.16259 | 17.63302 | 520 ft | 167 kts | 141° |
| 2026-04-27 00:52 | 43.16011 | 17.64446 | 1163 ft | 128 kts | 52° |
| 2026-04-27 00:52 | 43.16705 | 17.65428 | 1000 ft | 153 kts | 46° |
| 2026-04-27 00:52 | 43.17307 | 17.66373 | 1500 ft | 99 kts | 50° |
| 2026-04-27 00:52 | 43.17506 | 17.66701 | 1516 ft | 7 kts | 50° |
| 2026-04-27 00:53 | 43.17528 | 17.66733 | 1491 ft | 10 kts | 47° |
| 2026-04-27 00:53 | 43.17555 | 17.66775 | 1486 ft | 7 kts | 23° |
| 2026-04-27 00:53 | 43.17544 | 17.66887 | 1521 ft | 12 kts | 359° |
| 2026-04-27 00:53 | 43.17579 | 17.66870 | 1515 ft | 1 kts | 225° |
| 2026-04-27 00:54 | 43.17578 | 17.66836 | 1476 ft | 1 kts | 225° |
| 2026-04-27 00:54 | 43.17560 | 17.66914 | 1549 ft | 35 kts | 115° |
| 2026-04-27 00:54 | 43.17292 | 17.67457 | 1557 ft | 101 kts | 125° |
| 2026-04-27 00:54 | 43.16776 | 17.68363 | 1532 ft | 133 kts | 128° |
| 2026-04-27 00:55 | 43.16093 | 17.69327 | 1490 ft | 147 kts | 136° |
| 2026-04-27 00:55 | 43.15332 | 17.70319 | 1497 ft | 153 kts | 136° |
| 2026-04-27 00:55 | 43.14580 | 17.71317 | 1139 ft | 146 kts | 136° |
| 2026-04-27 00:55 | 43.13982 | 17.72167 | 896 ft | 92 kts | 130° |
| 2026-04-27 00:56 | 43.13676 | 17.72645 | 458 ft | 53 kts | 129° |
| 2026-04-27 00:56 | 43.13479 | 17.72981 | 337 ft | 24 kts | 85° |
| 2026-04-27 00:56 | 43.13439 | 17.73063 | 200 ft | 5 kts | 78° |
| 2026-04-27 00:56 | 43.13429 | 17.73086 | 182 ft | 9 kts | 78° |
| 2026-04-27 00:57 | 43.13694 | 17.72991 | 89 ft | 91 kts | 345° |
| 2026-04-27 00:57 | 43.14470 | 17.72937 | 103 ft | 128 kts | 19° |
| 2026-04-27 00:57 | 43.15063 | 17.73874 | 170 ft | 138 kts | 58° |
| 2026-04-27 00:57 | 43.15638 | 17.75004 | 165 ft | 143 kts | 67° |
| 2026-04-27 00:58 | 43.15767 | 17.76119 | 429 ft | 116 kts | 40° |
| 2026-04-27 00:58 | 43.16486 | 17.76801 | 574 ft | 128 kts | 39° |
| 2026-04-27 00:58 | 43.16913 | 17.78040 | 268 ft | 151 kts | 52° |
| 2026-04-27 00:58 | 43.17914 | 17.78327 | 197 ft | 157 kts | 346° |
| 2026-04-27 00:59 | 43.18997 | 17.77932 | 99 ft | 163 kts | 353° |
| 2026-04-27 00:59 | 43.20038 | 17.78428 | 153 ft | 158 kts | 35° |
| 2026-04-27 00:59 | 43.20856 | 17.79297 | 291 ft | 148 kts | 41° |
| 2026-04-27 00:59 | 43.21378 | 17.80546 | 305 ft | 154 kts | 71° |
| 2026-04-27 01:00 | 43.21726 | 17.81951 | 263 ft | 156 kts | 61° |
| 2026-04-27 01:00 | 43.22297 | 17.82485 | 264 ft | 153 kts | 16° |
| 2026-04-27 01:00 | 43.23223 | 17.83174 | 312 ft | 150 kts | 29° |
| 2026-04-27 01:00 | 43.24599 | 17.83327 | 519 ft | 144 kts | 32° |
| 2026-04-27 01:01 | 43.24923 | 17.84636 | 526 ft | 154 kts | 80° |
| 2026-04-27 01:01 | 43.25099 | 17.86089 | 480 ft | 159 kts | 79° |
| 2026-04-27 01:01 | 43.25245 | 17.87130 | 309 ft | 167 kts | 77° |
| 2026-04-27 01:01 | 43.25471 | 17.88646 | 405 ft | 145 kts | 79° |
| 2026-04-27 01:02 | 43.25518 | 17.89620 | 345 ft | 79 kts | 87° |
| 2026-04-27 01:02 | 43.25539 | 17.90076 | 317 ft | 9 kts | 34° |
| 2026-04-27 01:02 | 43.25579 | 17.90153 | 279 ft | 26 kts | 36° |
| 2026-04-27 01:02 | 43.25721 | 17.89928 | 287 ft | 84 kts | 298° |
| 2026-04-27 01:03 | 43.26104 | 17.89090 | 356 ft | 122 kts | 309° |
| 2026-04-27 01:03 | 43.26834 | 17.88321 | 377 ft | 141 kts | 323° |
| 2026-04-27 01:03 | 43.27637 | 17.87513 | 526 ft | 145 kts | 324° |
| 2026-04-27 01:03 | 43.28462 | 17.86657 | 562 ft | 152 kts | 323° |
| 2026-04-27 01:04 | 43.29347 | 17.85751 | 470 ft | 163 kts | 322° |
| 2026-04-27 01:04 | 43.30255 | 17.84810 | 466 ft | 163 kts | 325° |
| 2026-04-27 01:04 | 43.31091 | 17.83852 | 633 ft | 153 kts | 319° |
| 2026-04-27 01:04 | 43.31821 | 17.82837 | 389 ft | 148 kts | 317° |
| 2026-04-27 01:05 | 43.32597 | 17.82049 | 378 ft | 128 kts | 327° |
| 2026-04-27 01:05 | 43.33280 | 17.81661 | 328 ft | 67 kts | 343° |
| 2026-04-27 01:05 | 43.33485 | 17.81583 | 300 ft | 21 kts | 345° |
| 2026-04-27 01:05 | 43.33621 | 17.81531 | 234 ft | 16 kts | 345° |
| 2026-04-27 01:06 | 43.33677 | 17.81516 | 205 ft | 6 kts | 345° |
| 2026-04-27 01:06 | 43.33700 | 17.81504 | 249 ft | 6 kts | 336° |
| 2026-04-27 01:06 | 43.33951 | 17.81525 | 338 ft | 68 kts | 22° |
| 2026-04-27 01:06 | 43.34333 | 17.81819 | 743 ft | 64 kts | 29° |
| 2026-04-27 01:07 | 43.34673 | 17.82311 | 1091 ft | 79 kts | 85° |
| 2026-04-27 01:07 | 43.34553 | 17.82960 | 1631 ft | 58 kts | 105° |
| 2026-04-27 01:07 | 43.34453 | 17.83480 | 1963 ft | 63 kts | 102° |
| 2026-04-27 01:07 | 43.34387 | 17.84103 | 2391 ft | 56 kts | 97° |
| 2026-04-27 01:08 | 43.34381 | 17.84552 | 2807 ft | 45 kts | 87° |
| 2026-04-27 01:08 | 43.34335 | 17.84957 | 3178 ft | 43 kts | 100° |
| 2026-04-27 01:08 | 43.34305 | 17.85388 | 3516 ft | 50 kts | 88° |
| 2026-04-27 01:08 | 43.34624 | 17.85812 | 3676 ft | 80 kts | 35° |
| 2026-04-27 01:09 | 43.35137 | 17.86297 | 3867 ft | 87 kts | 33° |
| 2026-04-27 01:09 | 43.35618 | 17.86744 | 4165 ft | 81 kts | 33° |
| 2026-04-27 01:09 | 43.36062 | 17.87165 | 4449 ft | 77 kts | 34° |
| 2026-04-27 01:09 | 43.36526 | 17.87602 | 4626 ft | 86 kts | 34° |
| 2026-04-27 01:10 | 43.37065 | 17.88112 | 4625 ft | 102 kts | 34° |
| 2026-04-27 01:10 | 43.37655 | 17.88666 | 4644 ft | 105 kts | 34° |
| 2026-04-27 01:10 | 43.38260 | 17.89229 | 4638 ft | 106 kts | 34° |
| 2026-04-27 01:10 | 43.38868 | 17.89795 | 4667 ft | 105 kts | 33° |
| 2026-04-27 01:11 | 43.39474 | 17.90358 | 4655 ft | 105 kts | 34° |
| 2026-04-27 01:11 | 43.40081 | 17.90921 | 4656 ft | 107 kts | 34° |
| 2026-04-27 01:11 | 43.40686 | 17.91486 | 4659 ft | 106 kts | 34° |
| 2026-04-27 01:11 | 43.41294 | 17.92054 | 4663 ft | 106 kts | 34° |
| 2026-04-27 01:12 | 43.41903 | 17.92627 | 4665 ft | 106 kts | 34° |
| 2026-04-27 01:12 | 43.42511 | 17.93195 | 4668 ft | 105 kts | 34° |
| 2026-04-27 01:12 | 43.43119 | 17.93766 | 4672 ft | 105 kts | 34° |
| 2026-04-27 01:12 | 43.43728 | 17.94337 | 4665 ft | 105 kts | 33° |
| 2026-04-27 01:13 | 43.44336 | 17.94914 | 4677 ft | 105 kts | 34° |
| 2026-04-27 01:13 | 43.44939 | 17.95490 | 4675 ft | 105 kts | 34° |
| 2026-04-27 01:13 | 43.45555 | 17.96059 | 4668 ft | 110 kts | 33° |
| 2026-04-27 01:13 | 43.45974 | 17.96918 | 4664 ft | 112 kts | 70° |
| 2026-04-27 01:14 | 43.46209 | 17.97953 | 4659 ft | 115 kts | 72° |
| 2026-04-27 01:14 | 43.46585 | 17.98932 | 4635 ft | 123 kts | 38° |
| 2026-04-27 01:14 | 43.47279 | 17.99627 | 4632 ft | 124 kts | 35° |
| 2026-04-27 01:14 | 43.47981 | 18.00317 | 4627 ft | 125 kts | 35° |
| 2026-04-27 01:15 | 43.48689 | 18.01013 | 4633 ft | 126 kts | 35° |
| 2026-04-27 01:15 | 43.49403 | 18.01713 | 4625 ft | 126 kts | 35° |
| 2026-04-27 01:15 | 43.50117 | 18.02413 | 4624 ft | 126 kts | 35° |
| 2026-04-27 01:15 | 43.50826 | 18.03108 | 4631 ft | 124 kts | 35° |
| 2026-04-27 01:16 | 43.51529 | 18.03797 | 4634 ft | 124 kts | 35° |
| 2026-04-27 01:16 | 43.52230 | 18.04486 | 4638 ft | 124 kts | 35° |
| 2026-04-27 01:16 | 43.52933 | 18.05169 | 4649 ft | 123 kts | 35° |
| 2026-04-27 01:16 | 43.53627 | 18.05843 | 4657 ft | 122 kts | 34° |
| 2026-04-27 01:17 | 43.54317 | 18.06517 | 4666 ft | 122 kts | 34° |
| 2026-04-27 01:17 | 43.55008 | 18.07194 | 4672 ft | 122 kts | 35° |
| 2026-04-27 01:17 | 43.55697 | 18.07873 | 4676 ft | 121 kts | 35° |
| 2026-04-27 01:17 | 43.56366 | 18.08530 | 4814 ft | 112 kts | 34° |
| 2026-04-27 01:18 | 43.56989 | 18.09147 | 4930 ft | 110 kts | 35° |
| 2026-04-27 01:18 | 43.57525 | 18.09869 | 5055 ft | 113 kts | 66° |
| 2026-04-27 01:18 | 43.57876 | 18.10909 | 5092 ft | 126 kts | 60° |
| 2026-04-27 01:18 | 43.58366 | 18.11887 | 5251 ft | 124 kts | 51° |
| 2026-04-27 01:19 | 43.59049 | 18.12680 | 5144 ft | 123 kts | 36° |
| 2026-04-27 01:19 | 43.59709 | 18.13314 | 5293 ft | 111 kts | 34° |
| 2026-04-27 01:19 | 43.60344 | 18.13916 | 5368 ft | 111 kts | 33° |
| 2026-04-27 01:19 | 43.60985 | 18.14521 | 5400 ft | 113 kts | 34° |
| 2026-04-27 01:20 | 43.61641 | 18.15130 | 5449 ft | 112 kts | 33° |
| 2026-04-27 01:20 | 43.62268 | 18.15711 | 5558 ft | 107 kts | 34° |
| 2026-04-27 01:20 | 43.62884 | 18.16305 | 5583 ft | 115 kts | 38° |
| 2026-04-27 01:20 | 43.63430 | 18.17115 | 5711 ft | 119 kts | 47° |
| 2026-04-27 01:21 | 43.64004 | 18.17935 | 5976 ft | 111 kts | 47° |
| 2026-04-27 01:21 | 43.64488 | 18.18706 | 6282 ft | 102 kts | 50° |
| 2026-04-27 01:21 | 43.64911 | 18.19440 | 6572 ft | 97 kts | 51° |
| 2026-04-27 01:21 | 43.65378 | 18.20198 | 6632 ft | 112 kts | 50° |
| 2026-04-27 01:22 | 43.65909 | 18.21053 | 6647 ft | 121 kts | 46° |
| 2026-04-27 01:22 | 43.66589 | 18.21758 | 6630 ft | 123 kts | 34° |
| 2026-04-27 01:22 | 43.67298 | 18.22405 | 6640 ft | 122 kts | 32° |
| 2026-04-27 01:22 | 43.67995 | 18.23066 | 6657 ft | 122 kts | 44° |
| 2026-04-27 01:23 | 43.68455 | 18.24095 | 6683 ft | 126 kts | 60° |
| 2026-04-27 01:23 | 43.68874 | 18.25182 | 6652 ft | 133 kts | 61° |
| 2026-04-27 01:23 | 43.69394 | 18.26246 | 6657 ft | 135 kts | 45° |
| 2026-04-27 01:23 | 43.70072 | 18.27187 | 6495 ft | 144 kts | 44° |
| 2026-04-27 01:24 | 43.70832 | 18.28146 | 6314 ft | 150 kts | 41° |
| 2026-04-27 01:24 | 43.71648 | 18.29124 | 5748 ft | 165 kts | 39° |
| 2026-04-27 01:24 | 43.72529 | 18.30121 | 5515 ft | 162 kts | 39° |
| 2026-04-27 01:24 | 43.73365 | 18.31072 | 5276 ft | 158 kts | 40° |
| 2026-04-27 01:25 | 43.74190 | 18.32176 | 4912 ft | 165 kts | 44° |
| 2026-04-27 01:25 | 43.75082 | 18.33136 | 4728 ft | 161 kts | 27° |
| 2026-04-27 01:25 | 43.76087 | 18.33800 | 4620 ft | 159 kts | 24° |
| 2026-04-27 01:25 | 43.77061 | 18.34335 | 4801 ft | 143 kts | 20° |
| 2026-04-27 01:26 | 43.77990 | 18.34819 | 4709 ft | 148 kts | 21° |
| 2026-04-27 01:26 | 43.78946 | 18.35139 | 4899 ft | 135 kts | 12° |
| 2026-04-27 01:26 | 43.79802 | 18.35407 | 5170 ft | 122 kts | 16° |
| 2026-04-27 01:26 | 43.80637 | 18.35682 | 5284 ft | 125 kts | 14° |
| 2026-04-27 01:27 | 43.81482 | 18.36010 | 5363 ft | 128 kts | 18° |
| 2026-04-27 01:27 | 43.82343 | 18.36504 | 5166 ft | 140 kts | 22° |
| 2026-04-27 01:27 | 43.83322 | 18.36561 | 4181 ft | 154 kts | 343° |
| 2026-04-27 01:27 | 43.84364 | 18.36473 | 2737 ft | 153 kts | 27° |
| 2026-04-27 01:28 | 43.84993 | 18.37495 | 2347 ft | 132 kts | 64° |
| 2026-04-27 01:28 | 43.85300 | 18.38606 | 2239 ft | 116 kts | 71° |
| 2026-04-27 01:28 | 43.85651 | 18.39493 | 2315 ft | 94 kts | 56° |
| 2026-04-27 01:28 | 43.86100 | 18.40059 | 2322 ft | 86 kts | 14° |
| 2026-04-27 01:29 | 43.86560 | 18.40505 | 2253 ft | 88 kts | 103° |
| 2026-04-27 01:29 | 43.86150 | 18.40551 | 2254 ft | 53 kts | 220° |
| 2026-04-27 01:29 | 43.86028 | 18.40323 | 2225 ft | 13 kts | 283° |
| 2026-04-27 01:29 | 43.86055 | 18.40115 | 2143 ft | 52 kts | 303° |
| 2026-04-27 01:30 | 43.86417 | 18.39644 | 2480 ft | 61 kts | 314° |
| 2026-04-27 01:30 | 43.86791 | 18.39149 | 2651 ft | 79 kts | 315° |
| 2026-04-27 01:30 | 43.87075 | 18.38727 | 2807 ft | 30 kts | 312° |
| 2026-04-27 01:30 | 43.87153 | 18.38652 | 2765 ft | 7 kts | 313° |
| 2026-04-27 01:31 | 43.87201 | 18.38650 | 2760 ft | 6 kts | 322° |
| 2026-04-27 01:31 | 43.87219 | 18.38654 | 2820 ft | 0 kts | 332° |
| 2026-04-27 01:31 | 43.87230 | 18.38648 | 2881 ft | 4 kts | 342° |
| 2026-04-27 01:31 | 43.87246 | 18.38642 | 2913 ft | 4 kts | 30° |
| 2026-04-27 01:32 | 43.87214 | 18.38629 | 2948 ft | 36 kts | 252° |
| 2026-04-27 01:32 | 43.87338 | 18.38559 | 3106 ft | 64 kts | 118° |
| 2026-04-27 01:32 | 43.87293 | 18.39317 | 2420 ft | 89 kts | 124° |
| 2026-04-27 01:32 | 43.87065 | 18.39979 | 2129 ft | 68 kts | 124° |
| 2026-04-27 01:33 | 43.86958 | 18.40376 | 2007 ft | 10 kts | 101° |
| 2026-04-27 01:33 | 43.86930 | 18.40451 | 1958 ft | 27 kts | 185° |
| 2026-04-27 01:33 | 43.86498 | 18.40170 | 1877 ft | 97 kts | 189° |
| 2026-04-27 01:33 | 43.85893 | 18.39489 | 1792 ft | 137 kts | 249° |
| 2026-04-27 01:34 | 43.85899 | 18.38323 | 2154 ft | 108 kts | 272° |
| 2026-04-27 01:34 | 43.85917 | 18.37158 | 1964 ft | 143 kts | 259° |
| 2026-04-27 01:34 | 43.85976 | 18.35783 | 2231 ft | 120 kts | 277° |
| 2026-04-27 01:34 | 43.85713 | 18.34728 | 2072 ft | 152 kts | 207° |
| 2026-04-27 01:35 | 43.85203 | 18.33680 | 1728 ft | 160 kts | 269° |
| 2026-04-27 01:35 | 43.85147 | 18.32234 | 1686 ft | 150 kts | 270° |
| 2026-04-27 01:35 | 43.85623 | 18.31031 | 1637 ft | 152 kts | 325° |
| 2026-04-27 01:35 | 43.86231 | 18.30694 | 2062 ft | 36 kts | 73° |
| 2026-04-27 01:36 | 43.86273 | 18.30937 | 1721 ft | 33 kts | 89° |
| 2026-04-27 01:36 | 43.86278 | 18.31119 | 1678 ft | 4 kts | 88° |
| 2026-04-27 01:36 | 43.86277 | 18.31123 | 1677 ft | 1 kts | 88° |
| 2026-04-27 01:36 | 43.86280 | 18.31114 | 1677 ft | 1 kts | 88° |
| 2026-04-27 01:37 | 43.86281 | 18.31113 | 1677 ft | 0 kts | 88° |
| 2026-04-27 01:37 | 43.86280 | 18.31113 | 1668 ft | 2 kts | 101° |
| 2026-04-27 01:38 | 43.86111 | 18.31113 | 2012 ft | 22 kts | 177° |
| 2026-04-27 01:38 | 43.85746 | 18.31195 | 1896 ft | 106 kts | 155° |
| 2026-04-27 01:38 | 43.85189 | 18.32127 | 1737 ft | 146 kts | 106° |
| 2026-04-27 01:38 | 43.85153 | 18.33595 | 1738 ft | 154 kts | 88° |
| 2026-04-27 01:39 | 43.85140 | 18.35053 | 1738 ft | 154 kts | 90° |
| 2026-04-27 01:39 | 43.85283 | 18.36496 | 1796 ft | 143 kts | 77° |
| 2026-04-27 01:39 | 43.84840 | 18.37615 | 1973 ft | 142 kts | 147° |
| 2026-04-27 01:39 | 43.84029 | 18.38400 | 2327 ft | 130 kts | 143° |
| 2026-04-27 01:40 | 43.83255 | 18.38561 | 2691 ft | 121 kts | 204° |
| 2026-04-27 01:40 | 43.82483 | 18.37956 | 2566 ft | 137 kts | 216° |
| 2026-04-27 01:40 | 43.81861 | 18.36975 | 2364 ft | 143 kts | 240° |
| 2026-04-27 01:40 | 43.81668 | 18.35638 | 2189 ft | 133 kts | 277° |
| 2026-04-27 01:41 | 43.81933 | 18.34535 | 1769 ft | 106 kts | 297° |
| 2026-04-27 01:41 | 43.82182 | 18.33886 | 1716 ft | 38 kts | 297° |
| 2026-04-27 01:41 | 43.82275 | 18.33716 | 1698 ft | 13 kts | 313° |
| 2026-04-27 01:41 | 43.82323 | 18.33676 | 1692 ft | 7 kts | 345° |
| 2026-04-27 01:42 | 43.82373 | 18.33662 | 1691 ft | 10 kts | 345° |
| 2026-04-27 01:42 | 43.82452 | 18.33613 | 1690 ft | 14 kts | 329° |
| 2026-04-27 01:42 | 43.82497 | 18.33528 | 1683 ft | 5 kts | 328° |
| 2026-04-27 01:42 | 43.82538 | 18.33507 | 1685 ft | 10 kts | 329° |
| 2026-04-27 01:43 | 43.82573 | 18.33471 | 1680 ft | 2 kts | 289° |
| 2026-04-27 01:43 | 43.82590 | 18.33441 | 1679 ft | 6 kts | 232° |
| 2026-04-27 01:43 | 43.82599 | 18.33420 | 1679 ft | 2 kts | 213° |
| 2026-04-27 01:43 | 43.82602 | 18.33424 | 1681 ft | 0 kts | 216° |
| 2026-04-27 01:44 | 43.82599 | 18.33421 | 1682 ft | 3 kts | 216° |
| 2026-04-27 01:44 | 43.82598 | 18.33420 | 1675 ft | 0 kts | 216° |